Time;durP1;ratioP1;P1;durP2;ratioP2;P2;SDS_P1;SDS_P2;PMS_P1;PMS_P2;Temp;Humidity;BMP_temperature;BMP_pressure;BME280_temperature;BME280_humidity;BME280_pressure;Samples;Min_cycle;Max_cycle;Signal;HPM_P1;HPM_P2
2024/02/10 00:00:16;;;;;;;85.60;66.40;;;;;;;5.43;100.00;96855.21;109469;1252;59067;-79
2024/02/10 00:03:03;;;;;;;83.10;63.70;;;;;;;5.42;100.00;96849.46;109435;1252;67676;-80
2024/02/10 00:05:29;;;;;;;85.90;66.80;;;;;;;5.42;100.00;96848.80;109476;1252;60844;-79
2024/02/10 00:07:56;;;;;;;87.30;65.30;;;;;;;5.43;100.00;96849.80;109443;1252;65086;-80
2024/02/10 00:10:27;;;;;;;84.10;61.80;;;;;;;5.44;100.00;96850.04;109435;1253;58948;-80
2024/02/10 00:13:00;;;;;;;;;;;;;;;5.45;100.00;96847.30;109456;1253;58994;-80
2024/02/10 00:15:27;;;;;;;81.60;60.80;;;;;;;5.44;100.00;96847.54;109471;1253;65822;-80
2024/02/10 00:17:54;;;;;;;87.80;60.90;;;;;;;5.45;100.00;96849.97;109330;1252;59076;-81
2024/02/10 00:20:23;;;;;;;81.80;60.50;;;;;;;5.46;100.00;96850.56;109464;1252;63904;-80
2024/02/10 00:22:50;;;;;;;88.10;64.70;;;;;;;5.48;100.00;96850.64;109430;1252;59005;-80
2024/02/10 00:25:18;;;;;;;84.50;61.80;;;;;;;5.49;100.00;96852.44;109145;1254;59079;-81
2024/02/10 00:27:48;;;;;;;84.20;62.80;;;;;;;5.51;100.00;96850.36;109339;1252;66176;-79
2024/02/10 00:30:18;;;;;;;82.60;61.30;;;;;;;5.52;100.00;96850.31;109460;1253;61299;-80
2024/02/10 00:32:45;;;;;;;84.60;61.90;;;;;;;5.53;100.00;96848.31;109407;1253;65195;-80
2024/02/10 00:35:12;;;;;;;81.60;61.90;;;;;;;5.54;100.00;96852.29;109416;1254;59026;-80
2024/02/10 00:37:44;;;;;;;85.30;63.80;;;;;;;5.56;100.00;96856.46;109479;1254;59225;-80
2024/02/10 00:41:02;;;;;;;85.40;62.80;;;;;;;5.56;100.00;96855.77;109440;1252;67226;-81
2024/02/10 00:43:29;;;;;;;80.50;60.60;;;;;;;5.57;100.00;96851.45;109000;1258;60216;-80
2024/02/10 00:45:57;;;;;;;87.50;67.80;;;;;;;5.58;100.00;96856.16;108994;1258;71803;-80
2024/02/10 00:48:28;;;;;;;88.10;70.30;;;;;;;5.60;100.00;96856.90;108924;1259;59371;-80
2024/02/10 00:50:59;;;;;;;86.90;69.40;;;;;;;5.61;100.00;96862.92;109047;1258;59050;-80
2024/02/10 00:53:26;;;;;;;93.30;72.10;;;;;;;5.62;100.00;96864.23;109056;1258;65786;-79
2024/02/10 00:55:53;;;;;;;93.80;71.50;;;;;;;5.64;100.00;96861.28;109091;1258;60222;-79
2024/02/10 00:58:19;;;;;;;85.60;67.30;;;;;;;5.66;100.00;96862.54;109106;1258;64107;-79
2024/02/10 01:00:46;;;;;;;85.30;66.60;;;;;;;5.67;100.00;96863.02;109073;1258;58964;-80
2024/02/10 01:03:13;;;;;;;86.90;64.70;;;;;;;5.67;100.00;96861.54;109049;1258;59197;-80
2024/02/10 01:05:39;;;;;;;93.50;70.50;;;;;;;5.69;100.00;96864.03;108968;1258;66596;-80
2024/02/10 01:08:06;;;;;;;93.10;68.10;;;;;;;5.70;100.00;96861.16;108760;1259;61183;-80
2024/02/10 01:10:34;;;;;;;88.50;65.80;;;;;;;5.71;100.00;96855.73;108987;1258;64062;-80
2024/02/10 01:13:03;;;;;;;93.70;68.90;;;;;;;5.74;100.00;96857.87;108973;1258;59449;-80
2024/02/10 01:15:30;;;;;;;82.90;65.30;;;;;;;5.75;100.00;96856.35;109002;1258;58926;-80
2024/02/10 01:18:00;;;;;;;80.70;63.50;;;;;;;5.77;100.00;96856.42;108994;1258;66169;-80
2024/02/10 01:20:27;;;;;;;85.00;64.10;;;;;;;5.78;100.00;96854.14;109189;1253;61048;-79
2024/02/10 01:22:59;;;;;;;84.20;64.70;;;;;;;5.79;100.00;96852.48;109442;1252;63987;-80
2024/02/10 01:25:25;;;;;;;89.10;66.00;;;;;;;5.81;100.00;96851.98;109428;1252;59005;-81
2024/02/10 01:27:55;;;;;;;82.80;62.30;;;;;;;5.82;100.00;96852.77;109420;1252;59024;-81
2024/02/10 01:30:21;;;;;;;79.50;60.40;;;;;;;5.83;100.00;96850.94;109491;1252;66136;-80
2024/02/10 01:32:48;;;;;;;79.30;61.90;;;;;;;5.84;100.00;96849.98;109446;1252;61117;-80
2024/02/10 01:35:17;;;;;;;84.60;63.60;;;;;;;5.85;100.00;96848.29;109420;1252;65368;-80
2024/02/10 01:37:44;;;;;;;88.90;67.50;;;;;;;5.86;100.00;96847.68;109437;1252;59075;-79
2024/02/10 01:40:11;;;;;;;84.60;66.50;;;;;;;5.87;100.00;96847.77;109385;1253;59397;-79
2024/02/10 01:42:38;;;;;;;83.00;63.20;;;;;;;5.88;100.00;96848.36;109488;1252;66998;-80
2024/02/10 01:45:13;;;;;;;80.30;64.60;;;;;;;5.89;100.00;96849.15;109391;1252;60036;-80
2024/02/10 01:47:45;;;;;;;86.60;66.80;;;;;;;5.90;100.00;96849.33;109319;1252;64018;-80
2024/02/10 01:50:12;;;;;;;81.30;64.40;;;;;;;5.90;100.00;96848.79;109417;1252;58986;-81
2024/02/10 01:52:39;;;;;;;86.90;64.80;;;;;;;5.90;100.00;96845.57;109337;1254;58994;-82
2024/02/10 01:55:12;;;;;;;78.80;61.00;;;;;;;5.90;100.00;96843.46;109362;1252;65967;-80
2024/02/10 01:57:39;;;;;;;82.90;62.40;;;;;;;5.90;100.00;96841.88;109470;1252;59300;-80
2024/02/10 02:00:08;;;;;;;83.20;64.10;;;;;;;5.91;100.00;96839.17;109393;1252;64125;-80
2024/02/10 02:02:35;;;;;;;82.70;63.20;;;;;;;5.92;100.00;96838.02;109438;1252;59065;-79
2024/02/10 02:05:03;;;;;;;79.20;61.90;;;;;;;5.94;100.00;96836.33;109444;1252;59007;-80
2024/02/10 02:07:30;;;;;;;78.80;58.50;;;;;;;5.94;100.00;96833.85;109464;1252;66083;-80
2024/02/10 02:09:59;;;;;;;72.90;60.00;;;;;;;5.94;100.00;96833.45;109432;1252;59915;-81
2024/02/10 02:12:26;;;;;;;79.20;59.40;;;;;;;5.95;100.00;96827.27;109385;1252;62762;-80
2024/02/10 02:14:57;;;;;;;77.00;57.10;;;;;;;5.96;100.00;96828.73;109393;1252;59002;-80
2024/02/10 02:17:24;;;;;;;77.80;58.60;;;;;;;5.97;100.00;96827.15;109330;1252;59007;-80
2024/02/10 02:19:51;;;;;;;78.40;58.70;;;;;;;5.97;100.00;96823.08;109407;1252;64805;-82
2024/02/10 02:22:18;;;;;;;80.40;60.30;;;;;;;5.97;100.00;96817.60;109449;1252;58958;-81
2024/02/10 02:24:46;;;;;;;74.60;56.40;;;;;;;5.97;100.00;96817.40;109429;1252;65054;-80
2024/02/10 02:27:13;;;;;;;78.40;59.60;;;;;;;5.96;100.00;96810.08;109434;1252;59320;-80
2024/02/10 02:29:40;;;;;;;76.90;59.20;;;;;;;5.96;100.00;96807.60;109423;1252;59099;-80
2024/02/10 02:32:08;;;;;;;84.40;61.70;;;;;;;5.96;100.00;96803.58;109449;1253;64806;-78
2024/02/10 02:34:35;;;;;;;77.90;61.20;;;;;;;5.96;100.00;96800.87;109459;1252;59101;-79
2024/02/10 02:37:06;;;;;;;79.10;60.10;;;;;;;5.96;100.00;96801.40;109425;1252;64763;-80
2024/02/10 02:39:33;;;;;;;82.30;62.20;;;;;;;5.94;100.00;96795.23;109433;1252;59019;-79
2024/02/10 02:42:02;;;;;;;78.90;60.30;;;;;;;5.94;100.00;96792.62;109395;1254;59180;-79
2024/02/10 02:44:29;;;;;;;80.30;60.50;;;;;;;5.94;100.00;96793.15;109445;1252;65875;-78
2024/02/10 02:46:59;;;;;;;77.50;60.40;;;;;;;5.93;100.00;96792.98;109411;1252;60098;-79
2024/02/10 02:49:25;;;;;;;75.10;58.40;;;;;;;5.94;100.00;96792.42;109452;1252;62771;-79
2024/02/10 02:51:54;;;;;;;77.70;60.50;;;;;;;5.94;100.00;96789.97;109184;1252;59018;-79
2024/02/10 02:54:21;;;;;;;79.20;56.40;;;;;;;5.96;100.00;96792.77;109475;1252;59011;-80
2024/02/10 02:56:53;;;;;;;79.00;58.70;;;;;;;5.97;100.00;96792.36;109472;1252;64390;-78
2024/02/10 02:59:20;;;;;;;76.10;55.50;;;;;;;5.97;100.00;96792.72;109452;1253;59786;-79
2024/02/10 03:01:51;;;;;;;76.20;55.60;;;;;;;5.97;100.00;96796.73;109371;1252;63957;-80
2024/02/10 03:04:18;;;;;;;77.80;54.30;;;;;;;5.97;100.00;96799.59;109447;1252;58893;-79
2024/02/10 03:06:45;;;;;;;75.60;54.70;;;;;;;5.96;100.00;96802.82;109346;1252;59062;-79
2024/02/10 03:09:15;;;;;;;69.20;53.70;;;;;;;5.96;100.00;96801.83;109277;1252;65967;-80
2024/02/10 03:11:41;;;;;;;78.60;54.20;;;;;;;5.97;100.00;96803.69;109480;1252;60012;-79
2024/02/10 03:14:08;;;;;;;74.00;55.00;;;;;;;5.96;100.00;96804.97;109412;1252;64121;-79
2024/02/10 03:16:35;;;;;;;75.00;56.50;;;;;;;5.96;100.00;96807.61;109467;1252;59035;-79
2024/02/10 03:19:04;;;;;;;69.00;55.80;;;;;;;5.96;100.00;96808.50;109408;1252;58991;-79
2024/02/10 03:21:35;;;;;;;74.60;57.50;;;;;;;5.95;100.00;96809.44;109468;1252;65676;-79
2024/02/10 03:24:05;;;;;;;76.70;56.30;;;;;;;5.95;100.00;96809.30;109350;1252;60541;-78
2024/02/10 03:26:36;;;;;;;72.70;55.00;;;;;;;5.95;100.00;96811.58;109374;1252;64793;-78
2024/02/10 03:29:05;;;;;;;75.60;56.20;;;;;;;5.96;100.00;96813.76;109354;1253;59098;-79
2024/02/10 03:31:32;;;;;;;79.40;55.90;;;;;;;5.98;100.00;96816.45;109424;1252;58955;-79
2024/02/10 03:33:59;;;;;;;70.00;53.40;;;;;;;5.99;100.00;96818.48;109352;1252;67169;-79
2024/02/10 03:36:25;;;;;;;76.00;54.70;;;;;;;5.99;100.00;96817.04;109454;1253;61240;-79
2024/02/10 03:39:01;;;;;;;68.20;50.90;;;;;;;6.00;100.00;96816.94;109419;1252;65115;-79
2024/02/10 03:41:27;;;;;;;72.70;53.70;;;;;;;6.01;100.00;96815.86;109399;1252;58949;-78
2024/02/10 03:43:54;;;;;;;70.30;52.00;;;;;;;6.01;100.00;96816.16;109418;1252;59052;-79
2024/02/10 03:46:21;;;;;;;68.90;50.40;;;;;;;6.02;100.00;96817.83;109417;1252;67943;-78
2024/02/10 03:48:48;;;;;;;70.30;51.70;;;;;;;6.03;100.00;96816.90;109453;1252;58969;-79
2024/02/10 03:51:15;;;;;;;71.70;50.40;;;;;;;6.03;100.00;96822.86;109471;1252;65061;-79
2024/02/10 03:53:41;;;;;;;68.30;52.00;;;;;;;6.03;100.00;96824.98;109459;1252;58995;-79
2024/02/10 03:56:11;;;;;;;66.40;50.10;;;;;;;6.04;100.00;96826.31;109428;1252;59005;-79
2024/02/10 03:58:43;;;;;;;73.70;54.80;;;;;;;6.04;100.00;96830.55;109446;1252;64788;-79
2024/02/10 04:01:15;;;;;;;70.60;52.70;;;;;;;6.05;100.00;96828.33;109454;1252;59813;-79
2024/02/10 04:03:45;;;;;;;66.80;50.00;;;;;;;6.06;100.00;96826.37;109420;1252;64118;-79
2024/02/10 04:06:15;;;;;;;68.90;50.40;;;;;;;6.07;100.00;96823.83;109397;1252;58970;-78
2024/02/10 04:08:45;;;;;;;72.30;50.60;;;;;;;6.07;100.00;96826.41;109382;1252;60668;-78
2024/02/10 04:11:19;;;;;;;67.60;51.00;;;;;;;6.08;100.00;96825.32;109457;1252;66123;-79
2024/02/10 04:13:46;;;;;;;70.00;54.00;;;;;;;6.09;100.00;96823.23;109453;1252;59050;-78
2024/02/10 04:16:13;;;;;;;77.30;58.80;;;;;;;6.10;100.00;96815.38;109303;1252;65224;-78
2024/02/10 04:18:41;;;;;;;74.00;52.50;;;;;;;6.11;100.00;96816.73;109440;1252;59242;-78
2024/02/10 04:21:09;;;;;;;72.30;55.10;;;;;;;6.12;100.00;96821.11;109472;1252;59059;-78
2024/02/10 04:23:39;;;;;;;80.10;56.90;;;;;;;6.13;100.00;96818.89;109506;1252;66788;-78
2024/02/10 04:26:06;;;;;;;76.90;57.80;;;;;;;6.13;100.00;96813.39;109451;1252;61458;-78
2024/02/10 04:28:36;;;;;;;83.80;59.60;;;;;;;6.13;100.00;96811.80;109428;1252;63990;-79
2024/02/10 04:31:04;;;;;;;80.50;59.60;;;;;;;6.13;100.00;96809.02;109447;1253;58989;-79
2024/02/10 04:33:30;;;;;;;76.30;58.20;;;;;;;6.12;100.00;96807.70;109478;1253;59022;-78
2024/02/10 04:35:57;;;;;;;84.10;60.10;;;;;;;6.10;100.00;96801.89;109446;1253;67001;-79
2024/02/10 04:38:23;;;;;;;83.50;59.60;;;;;;;6.08;100.00;96801.84;109467;1253;60044;-79
2024/02/10 04:40:50;;;;;;;82.70;58.20;;;;;;;6.08;100.00;96799.59;109407;1253;65066;-79
2024/02/10 04:43:19;;;;;;;81.20;61.10;;;;;;;6.08;100.00;96794.13;109505;1253;59039;-78
2024/02/10 04:45:48;;;;;;;82.20;60.00;;;;;;;6.07;100.00;96792.08;109470;1253;58970;-79
2024/02/10 04:48:18;;;;;;;82.90;59.90;;;;;;;6.07;100.00;96789.42;109463;1253;64422;-78
2024/02/10 04:50:45;;;;;;;82.60;59.80;;;;;;;6.06;100.00;96785.05;109477;1253;60137;-78
2024/02/10 04:53:15;;;;;;;81.50;59.70;;;;;;;6.07;100.00;96787.48;109457;1253;64018;-79
2024/02/10 04:55:42;;;;;;;80.60;59.70;;;;;;;6.07;100.00;96785.52;109477;1252;59024;-78
2024/02/10 04:58:08;;;;;;;80.70;59.80;;;;;;;6.08;100.00;96785.08;109460;1253;58967;-79
2024/02/10 05:00:35;;;;;;;84.50;60.90;;;;;;;6.10;100.00;96786.18;109487;1253;66056;-78
2024/02/10 05:03:02;;;;;;;82.80;59.70;;;;;;;6.11;100.00;96784.86;109439;1253;59049;-78
2024/02/10 05:05:29;;;;;;;86.10;61.60;;;;;;;6.11;100.00;96783.23;109421;1253;65188;-79
2024/02/10 05:07:57;;;;;;;81.80;59.00;;;;;;;6.11;100.00;96783.39;109442;1253;58970;-78
2024/02/10 05:10:24;;;;;;;82.00;58.40;;;;;;;6.12;100.00;96780.52;109487;1252;59021;-77
2024/02/10 05:12:54;;;;;;;76.80;57.60;;;;;;;6.13;100.00;96781.00;109479;1253;66183;-78
2024/02/10 05:15:23;;;;;;;81.10;59.30;;;;;;;6.13;100.00;96785.70;109487;1253;60499;-83
2024/02/10 05:17:50;;;;;;;84.90;58.80;;;;;;;6.14;100.00;96785.84;109301;1253;64113;-77
2024/02/10 05:20:22;;;;;;;85.70;61.60;;;;;;;6.14;100.00;96786.14;109400;1253;59076;-77
2024/02/10 05:22:50;;;;;;;77.90;55.90;;;;;;;6.15;100.00;96789.78;109414;1253;59300;-77
2024/02/10 05:25:18;;;;;;;82.20;63.20;;;;;;;6.17;100.00;96790.39;109462;1252;65851;-77
2024/02/10 05:27:46;;;;;;;77.30;57.90;;;;;;;6.18;100.00;96790.08;109420;1253;59763;-76
2024/02/10 05:30:18;;;;;;;79.00;55.80;;;;;;;6.20;100.00;96790.98;109351;1253;62793;-76
2024/02/10 05:32:45;;;;;;;80.70;57.60;;;;;;;6.22;100.00;96790.67;109407;1253;59049;-77
2024/02/10 05:35:18;;;;;;;70.20;50.90;;;;;;;6.24;100.00;96791.66;109459;1253;59056;-77
2024/02/10 05:37:50;;;;;;;67.60;50.50;;;;;;;6.27;100.00;96794.92;109464;1253;67117;-78
2024/02/10 05:40:17;;;;;;;64.30;47.30;;;;;;;6.30;100.00;96798.59;109464;1253;61281;-77
2024/02/10 05:42:45;;;;;;;61.50;45.00;;;;;;;6.33;100.00;96798.30;109414;1253;65076;-76
2024/02/10 05:45:14;;;;;;;65.20;47.70;;;;;;;6.36;100.00;96798.39;109385;1253;59207;-77
2024/02/10 05:47:40;;;;;;;61.20;47.10;;;;;;;6.40;100.00;96797.20;109444;1252;58951;-77
2024/02/10 05:50:15;;;;;;;63.40;46.60;;;;;;;6.44;100.00;96797.08;109455;1252;67119;-77
2024/02/10 05:52:43;;;;;;;63.40;45.50;;;;;;;6.45;100.00;96798.52;109460;1252;60249;-78
2024/02/10 05:55:12;;;;;;;59.80;45.60;;;;;;;6.47;100.00;96806.27;109418;1252;72982;-77
2024/02/10 05:57:39;;;;;;;59.70;46.40;;;;;;;6.49;100.00;96804.73;109439;1252;59039;-76
2024/02/10 06:00:10;;;;;;;56.80;43.20;;;;;;;6.51;100.00;96799.47;109332;1252;59041;-77
2024/02/10 06:02:43;;;;;;;61.80;43.80;;;;;;;6.52;100.00;96795.81;109393;1252;66769;-77
2024/02/10 06:05:12;;;;;;;59.80;44.80;;;;;;;6.53;100.00;96795.20;109413;1254;61081;-76
2024/02/10 06:07:44;;;;;;;58.20;45.30;;;;;;;6.55;100.00;96802.09;109425;1253;65241;-78
2024/02/10 06:10:15;;;;;;;56.60;43.10;;;;;;;6.56;100.00;96800.27;109415;1253;59450;-76
2024/02/10 06:12:45;;;;;;;59.20;44.50;;;;;;;6.57;100.00;96803.50;109474;1252;58868;-77
2024/02/10 06:15:13;;;;;;;67.90;50.20;;;;;;;6.58;100.00;96801.12;109394;1252;67093;-79
2024/02/10 06:17:42;;;;;;;63.70;48.40;;;;;;;6.58;100.00;96803.91;109437;1252;61082;-79
2024/02/10 06:20:17;;;;;;;57.70;44.10;;;;;;;6.59;100.00;96803.16;109439;1252;65367;-79
2024/02/10 06:22:47;;;;;;;61.60;46.80;;;;;;;6.60;100.00;96799.34;109275;1252;59379;-78
2024/02/10 06:25:15;;;;;;;61.20;46.50;;;;;;;6.61;100.00;96805.98;109463;1252;59100;-79
2024/02/10 06:27:45;;;;;;;60.40;45.80;;;;;;;6.62;100.00;96812.75;109434;1252;66994;-79
2024/02/10 06:30:14;;;;;;;56.20;41.90;;;;;;;6.63;100.00;96810.05;109444;1252;60890;-79
2024/02/10 06:32:41;;;;;;;56.20;42.60;;;;;;;6.64;100.00;96809.27;109189;1252;63977;-78
2024/02/10 06:35:08;;;;;;;55.90;43.10;;;;;;;6.65;100.00;96809.89;109146;1252;59089;-78
2024/02/10 06:37:40;;;;;;;59.50;44.10;;;;;;;6.66;100.00;96815.77;109189;1252;59287;-79
2024/02/10 06:40:08;;;;;;;58.60;44.90;;;;;;;6.67;100.00;96818.38;109473;1252;66055;-80
2024/02/10 06:42:36;;;;;;;56.50;42.50;;;;;;;6.68;100.00;96817.04;109444;1252;60998;-80
2024/02/10 06:45:11;;;;;;;58.10;43.10;;;;;;;6.68;100.00;96817.34;109454;1253;65080;-79
2024/02/10 06:47:38;;;;;;;54.00;42.10;;;;;;;6.69;100.00;96820.66;109414;1252;58977;-79
2024/02/10 06:50:05;;;;;;;60.50;46.00;;;;;;;6.70;100.00;96818.67;109461;1252;59170;-79
2024/02/10 06:52:36;;;;;;;59.70;45.80;;;;;;;6.70;100.00;96819.67;109501;1252;67138;-79
2024/02/10 06:55:04;;;;;;;62.30;45.60;;;;;;;6.70;100.00;96820.89;109308;1252;60058;-79
2024/02/10 06:57:31;;;;;;;60.40;46.10;;;;;;;6.71;100.00;96822.05;109291;1252;65198;-85
2024/02/10 06:59:58;;;;;;;60.40;46.90;;;;;;;6.72;100.00;96823.75;109439;1252;59036;-79
2024/02/10 07:02:25;;;;;;;63.30;48.30;;;;;;;6.73;100.00;96822.02;109460;1252;59053;-79
2024/02/10 07:04:55;;;;;;;67.50;50.60;;;;;;;6.75;100.00;96815.90;109451;1252;67435;-79
2024/02/10 07:07:24;;;;;;;73.90;54.30;;;;;;;6.75;100.00;96812.00;109458;1252;61204;-79
2024/02/10 07:09:52;;;;;;;69.60;53.60;;;;;;;6.75;100.00;96813.39;109482;1252;65039;-79
2024/02/10 07:12:19;;;;;;;77.80;57.40;;;;;;;6.77;100.00;96815.75;109460;1252;58999;-79
2024/02/10 07:14:45;;;;;;;74.10;55.70;;;;;;;6.78;100.00;96818.28;109454;1252;59107;-79
2024/02/10 07:17:16;;;;;;;75.60;57.00;;;;;;;6.79;100.00;96816.76;109442;1252;67061;-80
2024/02/10 07:19:45;;;;;;;75.60;58.20;;;;;;;6.80;100.00;96817.52;109478;1252;61070;-78
2024/02/10 07:22:12;;;;;;;74.60;58.70;;;;;;;6.82;100.00;96817.41;109437;1252;65015;-78
2024/02/10 07:24:40;;;;;;;76.60;60.10;;;;;;;6.83;100.00;96818.39;109433;1253;59006;-79
2024/02/10 07:27:07;;;;;;;75.60;57.40;;;;;;;6.84;100.00;96816.16;109520;1252;58928;-79
2024/02/10 07:29:34;;;;;;;74.20;58.20;;;;;;;6.87;100.00;96810.33;109485;1252;67120;-80
2024/02/10 07:32:01;;;;;;;70.20;56.50;;;;;;;6.89;100.00;96809.72;109043;1252;61065;-79
2024/02/10 07:34:29;;;;;;;72.20;56.30;;;;;;;6.91;100.00;96813.92;109500;1252;65117;-79
2024/02/10 07:36:55;;;;;;;73.00;57.70;;;;;;;6.93;100.00;96819.63;109123;1252;59909;-79
2024/02/10 07:39:25;;;;;;;75.10;59.10;;;;;;;6.96;100.00;96820.81;109462;1252;58887;-79
2024/02/10 07:41:51;;;;;;;72.90;60.00;;;;;;;6.98;100.00;96822.58;109510;1252;66968;-79
2024/02/10 07:44:19;;;;;;;76.20;58.70;;;;;;;6.99;100.00;96822.25;109462;1252;60014;-79
2024/02/10 07:46:46;;;;;;;73.40;57.80;;;;;;;7.03;100.00;96824.05;109481;1252;64139;-80
2024/02/10 07:49:13;;;;;;;71.30;58.20;;;;;;;7.06;100.00;96827.17;109469;1253;58960;-80
2024/02/10 07:51:46;;;;;;;68.60;55.80;;;;;;;7.09;100.00;96827.23;109486;1252;59130;-80
2024/02/10 07:54:12;;;;;;;66.40;52.60;;;;;;;7.13;100.00;96830.96;109435;1256;67467;-80
2024/02/10 07:56:41;;;;;;;63.30;53.60;;;;;;;7.17;100.00;96832.23;109378;1252;60198;-79
2024/02/10 07:59:08;;;;;;;67.00;54.80;;;;;;;7.20;100.00;96832.94;109486;1252;64257;-79
2024/02/10 08:01:35;;;;;;;65.10;52.60;;;;;;;7.26;100.00;96831.91;109462;1252;58988;-79
2024/02/10 08:04:09;;;;;;;69.90;54.50;;;;;;;7.32;100.00;96830.31;109479;1252;59977;-79
2024/02/10 08:06:36;;;;;;;66.10;53.00;;;;;;;7.40;100.00;96828.02;109242;1252;66050;-80
2024/02/10 08:09:03;;;;;;;70.50;58.70;;;;;;;7.48;100.00;96825.52;109465;1252;61177;-79
2024/02/10 08:11:30;;;;;;;74.50;62.80;;;;;;;7.56;100.00;96828.89;109487;1252;62768;-79
2024/02/10 08:13:57;;;;;;;67.90;58.40;;;;;;;7.62;100.00;96830.15;109440;1253;59039;-80
2024/02/10 08:16:30;;;;;;;74.10;61.40;;;;;;;7.66;100.00;96831.55;109486;1252;59450;-80
2024/02/10 08:18:57;;;;;;;67.00;56.40;;;;;;;7.71;100.00;96833.23;109501;1252;67317;-77
2024/02/10 08:21:26;;;;;;;78.80;70.30;;;;;;;7.77;100.00;96832.20;109513;1253;60106;-79
2024/02/10 08:23:57;;;;;;;68.10;60.50;;;;;;;7.82;100.00;96830.64;109486;1252;64250;-79
2024/02/10 08:26:25;;;;;;;64.60;54.50;;;;;;;7.87;100.00;96832.16;109474;1252;59000;-80
2024/02/10 08:28:55;;;;;;;65.50;57.20;;;;;;;7.92;100.00;96831.52;109457;1254;58898;-80
2024/02/10 08:31:23;;;;;;;66.90;56.00;;;;;;;7.98;100.00;96827.10;109455;1253;67257;-79
2024/02/10 08:33:50;;;;;;;133.50;109.50;;;;;;;8.05;100.00;96825.57;109480;1252;61182;-80
2024/02/10 08:36:17;;;;;;;130.40;109.90;;;;;;;8.12;100.00;96825.29;109458;1252;65238;-79
2024/02/10 08:38:44;;;;;;;119.80;105.80;;;;;;;8.19;100.00;96824.64;109419;1252;59216;-80
2024/02/10 08:41:11;;;;;;;123.20;107.10;;;;;;;8.26;100.00;96822.90;109019;1252;59339;-79
2024/02/10 08:43:47;;;;;;;106.70;93.90;;;;;;;8.32;100.00;96822.17;109476;1252;66031;-80
2024/02/10 08:46:14;;;;;;;82.40;72.70;;;;;;;8.36;100.00;96818.60;109260;1252;61096;-80
2024/02/10 08:48:42;;;;;;;95.40;85.00;;;;;;;8.41;100.00;96816.81;109422;1252;63757;-80
2024/02/10 08:51:12;;;;;;;62.60;55.10;;;;;;;8.43;100.00;96817.70;109436;1252;59065;-82
2024/02/10 08:53:43;;;;;;;72.90;65.00;;;;;;;8.44;100.00;96810.66;109453;1252;59054;-80
2024/02/10 08:56:11;;;;;;;64.80;57.60;;;;;;;8.45;100.00;96811.48;109443;1256;67374;-81
2024/02/10 08:58:41;;;;;;;82.90;74.30;;;;;;;8.45;100.00;96821.53;109445;1253;61165;-80
2024/02/10 09:01:15;;;;;;;75.40;64.50;;;;;;;8.48;100.00;96818.79;109053;1252;64110;-80
2024/02/10 09:03:52;;;;;;;68.00;60.60;;;;;;;8.51;100.00;96826.98;109442;1252;59227;-79
2024/02/10 09:06:22;;;;;;;68.60;61.40;;;;;;;8.54;100.00;96830.02;109153;1252;59047;-80
2024/02/10 09:08:50;;;;;;;;;;;;;;;8.59;100.00;96834.08;109486;1252;65859;-79
2024/02/10 09:11:18;;;;;;;59.70;51.70;;;;;;;8.59;100.00;96839.35;109483;1252;61220;-79
2024/02/10 09:13:45;;;;;;;56.80;50.70;;;;;;;8.61;100.00;96835.27;109250;1252;65234;-80
2024/02/10 09:16:12;;;;;;;61.40;52.60;;;;;;;8.66;100.00;96837.13;109210;1252;59003;-80
2024/02/10 09:18:43;;;;;;;55.70;49.70;;;;;;;8.71;100.00;96838.88;109512;1252;58973;-80
2024/02/10 09:21:17;;;;;;;55.40;49.50;;;;;;;8.80;100.00;96835.80;109409;1252;67147;-80
2024/02/10 09:23:44;;;;;;;56.60;50.50;;;;;;;8.93;100.00;96833.98;109473;1252;59815;-80
2024/02/10 09:26:15;;;;;;;57.00;49.90;;;;;;;9.09;100.00;96836.95;109449;1252;64083;-79
2024/02/10 09:28:42;;;;;;;55.10;48.70;;;;;;;9.24;100.00;96835.12;109448;1252;59015;-80
2024/02/10 09:31:14;;;;;;;49.50;44.20;;;;;;;9.40;100.00;96834.48;109420;1254;58987;-81
2024/02/10 09:33:43;;;;;;;51.10;42.30;;;;;;;9.51;100.00;96836.80;109177;1252;66005;-80
2024/02/10 09:36:13;;;;;;;50.10;44.40;;;;;;;9.58;100.00;96837.90;109261;1252;61018;-80
2024/02/10 09:38:41;;;;;;;57.80;47.70;;;;;;;9.67;100.00;96839.86;109442;1253;64184;-81
2024/02/10 09:41:08;;;;;;;53.10;46.40;;;;;;;9.79;100.00;96842.24;109213;1253;59086;-81
2024/02/10 09:43:37;;;;;;;50.20;44.50;;;;;;;9.93;100.00;96844.91;109104;1255;59016;-80
2024/02/10 09:46:06;;;;;;;50.20;42.50;;;;;;;10.08;100.00;96846.39;108989;1255;67170;-80
2024/02/10 09:48:47;;;;;;;45.70;40.80;;;;;;;10.19;100.00;96846.02;109126;1255;61494;-81
2024/02/10 09:51:15;;;;;;;47.10;42.20;;;;;;;10.32;100.00;96852.27;108974;1255;65065;-81
2024/02/10 09:53:42;;;;;;;47.20;42.30;;;;;;;10.45;100.00;96850.02;109104;1256;59114;-81
2024/02/10 09:56:15;;;;;;;44.10;39.60;;;;;;;10.60;100.00;96848.34;109130;1255;58934;-79
2024/02/10 09:58:49;;;;;;;44.40;39.70;;;;;;;10.76;100.00;96847.68;109096;1255;66295;-80
2024/02/10 10:01:16;;;;;;;40.50;36.00;;;;;;;10.85;100.00;96843.84;109191;1255;61805;-79
2024/02/10 10:03:43;;;;;;;39.70;35.50;;;;;;;10.91;100.00;96843.06;109178;1255;64220;-81
2024/02/10 10:06:10;;;;;;;39.10;34.90;;;;;;;10.92;100.00;96839.75;109107;1255;59099;-80
2024/02/10 10:08:39;;;;;;;38.80;34.70;;;;;;;10.90;100.00;96841.23;109114;1255;59106;-80
2024/02/10 10:11:07;;;;;;;42.60;38.10;;;;;;;10.86;100.00;96843.70;109112;1255;65691;-79
2024/02/10 10:13:35;;;;;;;42.30;37.40;;;;;;;10.87;100.00;96842.27;109120;1256;61028;-80
2024/02/10 10:16:05;;;;;;;40.50;36.00;;;;;;;10.85;100.00;96838.94;109396;1252;65086;-81
2024/02/10 10:18:35;;;;;;;37.80;33.70;;;;;;;10.82;100.00;96839.60;109457;1252;59010;-80
2024/02/10 10:21:10;;;;;;;43.60;37.50;;;;;;;10.80;100.00;96840.62;109189;1252;59094;-75
2024/02/10 10:23:37;;;;;;;42.40;38.00;;;;;;;10.82;100.00;96828.00;109445;1252;67090;-74
2024/02/10 10:26:05;;;;;;;42.00;35.60;;;;;;;10.85;100.00;96825.75;109455;1252;61075;-75
2024/02/10 10:28:33;;;;;;;41.70;37.10;;;;;;;10.84;100.00;96821.79;109459;1252;64351;-75
2024/02/10 10:31:01;;;;;;;39.30;35.10;;;;;;;10.86;100.00;96821.23;109226;1252;59025;-74
2024/02/10 10:33:29;;;;;;;38.70;33.20;;;;;;;10.91;100.00;96818.55;109267;1252;59029;-73
2024/02/10 10:35:58;;;;;;;40.10;35.10;;;;;;;10.98;100.00;96808.24;109247;1252;67247;-74
2024/02/10 10:38:28;;;;;;;36.40;32.50;;;;;;;11.07;100.00;96807.29;109055;1252;60219;-74
2024/02/10 10:40:56;;;;;;;;;;;;;;;11.17;100.00;96805.33;109448;1252;65038;-73
2024/02/10 10:43:27;;;;;;;33.40;29.80;;;;;;;11.23;100.00;96803.89;109442;1252;58958;-74
2024/02/10 10:45:55;;;;;;;35.80;30.80;;;;;;;11.27;100.00;96796.66;109137;1252;59117;-74
2024/02/10 10:48:22;;;;;;;32.40;28.90;;;;;;;11.34;100.00;96793.05;109487;1252;64846;-74
2024/02/10 10:50:56;;;;;;;31.40;26.80;;;;;;;11.45;100.00;96793.70;109465;1252;59633;-80
2024/02/10 10:53:30;;;;;;;30.40;27.20;;;;;;;11.56;100.00;96790.91;109443;1252;65049;-80
2024/02/10 10:56:01;;;;;;;28.00;25.00;;;;;;;11.64;100.00;96792.77;109415;1252;59209;-80
2024/02/10 10:58:33;;;;;;;26.80;22.80;;;;;;;11.73;100.00;96788.98;109454;1253;59039;-80
2024/02/10 11:01:02;;;;;;;27.20;22.60;;;;;;;11.80;100.00;96788.52;109420;1252;67117;-80
2024/02/10 11:03:29;;;;;;;22.30;20.00;;;;;;;11.88;100.00;96790.58;109455;1252;61071;-80
2024/02/10 11:05:56;;;;;;;25.80;21.30;;;;;;;11.97;100.00;96789.86;109415;1253;65016;-83
2024/02/10 11:08:27;;;;;;;28.70;25.80;;;;;;;12.05;100.00;96795.64;109455;1252;59051;-79
2024/02/10 11:10:58;;;;;;;24.80;20.70;;;;;;;12.14;100.00;96798.31;109436;1252;58992;-81
2024/02/10 11:13:28;;;;;;;27.10;24.00;;;;;;;12.21;100.00;96803.02;109431;1252;65922;-79
2024/02/10 11:16:03;;;;;;;27.50;24.50;;;;;;;12.25;100.00;96805.05;109158;1252;59523;-81